Time,TemperatureF,DewpointF,PressureIn,WindDirection,WindDirectionDegrees,WindSpeedMPH,WindSpeedGustMPH,Humidity,HourlyPrecipIn,Conditions,Clouds,dailyrainin,SoftwareType,DateUTC
2013-01-25 00:03:00,-8.0,-11.8,30.07,WNW,292,5.8,-999.0,83,-99.99,,,0.00,Acu-Link.com,2013-01-25 05:03:00,
2013-01-25 00:18:00,-7.8,-11.6,30.07,West,270,10.4,-999.0,83,-99.99,,,0.00,Acu-Link.com,2013-01-25 05:18:00,
2013-01-25 00:33:00,-7.8,-11.6,30.07,West,270,5.3,-999.0,83,-99.99,,,0.00,Acu-Link.com,2013-01-25 05:33:00,
2013-01-25 00:49:00,-7.8,-11.6,30.06,WSW,247,8.3,-999.0,83,-99.99,,,0.00,Acu-Link.com,2013-01-25 05:49:00,
2013-01-25 01:04:00,-7.8,-11.3,30.06,West,270,6.8,-999.0,84,-99.99,,,0.00,Acu-Link.com,2013-01-25 06:04:00,
2013-01-25 01:19:00,-7.6,-11.4,30.07,WNW,292,6.3,-999.0,83,-99.99,,,0.00,Acu-Link.com,2013-01-25 06:19:00,
2013-01-25 01:34:00,-7.6,-11.4,30.08,WSW,247,4.7,-999.0,83,-99.99,,,0.00,Acu-Link.com,2013-01-25 06:34:00,
2013-01-25 01:50:00,-7.4,-11.2,30.08,WNW,292,4.2,-999.0,83,-99.99,,,0.00,Acu-Link.com,2013-01-25 06:50:00,
2013-01-25 02:05:00,-7.4,-11.2,30.08,WSW,247,7.3,-999.0,83,-99.99,,,0.00,Acu-Link.com,2013-01-25 07:05:00,
2013-01-25 02:20:00,-7.4,-10.9,30.08,West,270,2.2,-999.0,84,-99.99,,,0.00,Acu-Link.com,2013-01-25 07:20:00,
2013-01-25 02:35:00,-7.2,-11.0,30.08,SW,225,6.3,-999.0,83,-99.99,,,0.00,Acu-Link.com,2013-01-25 07:35:00,
2013-01-25 02:50:00,-7.2,-10.7,30.08,SW,225,2.7,-999.0,84,-99.99,,,0.00,Acu-Link.com,2013-01-25 07:50:00,
2013-01-25 03:06:00,-7.1,-10.9,30.09,SW,225,8.9,-999.0,83,-99.99,,,0.00,Acu-Link.com,2013-01-25 08:06:00,
2013-01-25 03:21:00,-6.9,-10.7,30.08,West,270,3.2,-999.0,83,-99.99,,,0.00,Acu-Link.com,2013-01-25 08:21:00,
2013-01-25 03:36:00,-6.9,-10.4,30.07,North,0,4.2,-999.0,84,-99.99,,,0.00,Acu-Link.com,2013-01-25 08:36:00,
2013-01-25 03:51:00,-6.9,-10.4,30.06,North,0,4.2,-999.0,84,-99.99,,,0.00,Acu-Link.com,2013-01-25 08:51:00,
2013-01-25 04:16:00,-6.9,-10.7,30.06,NNE,22,9.9,-999.0,83,-99.99,,,0.00,Acu-Link.com,2013-01-25 09:16:00,
2013-01-25 04:31:00,-7.1,-10.9,30.07,SW,225,6.3,-999.0,83,-99.99,,,0.00,Acu-Link.com,2013-01-25 09:31:00,
2013-01-25 04:46:00,-7.1,-10.6,30.06,South,180,4.7,-999.0,84,-99.99,,,0.00,Acu-Link.com,2013-01-25 09:46:00,
2013-01-25 05:01:00,-7.2,-11.0,30.07,WNW,292,2.7,-999.0,83,-99.99,,,0.00,Acu-Link.com,2013-01-25 10:01:00,
2013-01-25 05:16:00,-7.2,-11.0,30.07,West,270,2.7,-999.0,83,-99.99,,,0.00,Acu-Link.com,2013-01-25 10:16:00,
2013-01-25 05:32:00,-7.2,-11.0,30.06,SW,225,4.7,-999.0,83,-99.99,,,0.00,Acu-Link.com,2013-01-25 10:32:00,
2013-01-25 05:47:00,-7.2,-11.0,30.07,SW,225,2.2,-999.0,83,-99.99,,,0.00,Acu-Link.com,2013-01-25 10:47:00,
2013-01-25 06:02:00,-7.2,-11.0,30.07,SW,225,2.7,-999.0,83,-99.99,,,0.00,Acu-Link.com,2013-01-25 11:02:00,
2013-01-25 06:17:00,-7.2,-10.7,30.08,SSW,202,4.7,-999.0,84,-99.99,,,0.00,Acu-Link.com,2013-01-25 11:17:00,
2013-01-25 06:32:00,-7.2,-10.5,30.08,West,270,3.7,-999.0,85,-99.99,,,0.00,Acu-Link.com,2013-01-25 11:32:00,
2013-01-25 06:48:00,-7.4,-10.9,30.08,West,270,3.7,-999.0,84,-99.99,,,0.00,Acu-Link.com,2013-01-25 11:48:00,
2013-01-25 07:03:00,-7.4,-10.7,30.08,NNW,337,2.2,-999.0,85,-99.99,,,0.00,Acu-Link.com,2013-01-25 12:03:00,
2013-01-25 07:18:00,-7.2,-10.5,30.10,SW,225,5.3,-999.0,85,-99.99,,,0.00,Acu-Link.com,2013-01-25 12:18:00,
2013-01-25 07:33:00,-7.2,-10.7,30.09,West,270,6.3,-999.0,84,-99.99,,,0.00,Acu-Link.com,2013-01-25 12:33:00,
2013-01-25 07:49:00,-6.9,-10.7,30.10,West,270,4.2,-999.0,83,-99.99,,,0.00,Acu-Link.com,2013-01-25 12:49:00,
2013-01-25 08:04:00,-6.3,-10.1,30.10,West,270,3.2,-999.0,83,-99.99,,,0.00,Acu-Link.com,2013-01-25 13:04:00,
2013-01-25 08:19:00,-5.6,-9.6,30.10,West,270,5.8,-999.0,82,-99.99,,,0.00,Acu-Link.com,2013-01-25 13:19:00,
2013-01-25 08:34:00,-4.5,-8.6,30.10,West,270,6.3,-999.0,82,-99.99,,,0.00,Acu-Link.com,2013-01-25 13:34:00,
2013-01-25 08:49:00,-4.5,-8.8,30.09,West,270,4.7,-999.0,81,-99.99,,,0.00,Acu-Link.com,2013-01-25 13:49:00,
2013-01-25 09:05:00,-4.2,-9.0,30.09,West,270,13.5,-999.0,79,-99.99,,,0.00,Acu-Link.com,2013-01-25 14:05:00,
2013-01-25 09:20:00,-2.6,-7.7,30.09,NW,315,6.3,-999.0,78,-99.99,,,0.00,Acu-Link.com,2013-01-25 14:20:00,
2013-01-25 09:35:00,-2.4,-7.8,30.09,West,270,5.3,-999.0,77,-99.99,,,0.00,Acu-Link.com,2013-01-25 14:35:00,
2013-01-25 09:50:00,-3.3,-7.9,30.09,NW,315,8.9,-999.0,80,-99.99,,,0.00,Acu-Link.com,2013-01-25 14:50:00,
2013-01-25 10:05:00,-3.3,-8.2,30.09,SW,225,9.4,-999.0,79,-99.99,,,0.00,Acu-Link.com,2013-01-25 15:05:00,
2013-01-25 10:21:00,-2.6,-8.3,30.09,WSW,247,13.5,-999.0,76,-99.99,,,0.00,Acu-Link.com,2013-01-25 15:21:00,
2013-01-25 10:36:00,-1.3,-7.3,30.08,WSW,247,8.9,-999.0,75,-99.99,,,0.00,Acu-Link.com,2013-01-25 15:36:00,
2013-01-25 10:51:00,-0.9,-7.4,30.08,WSW,247,7.8,-999.0,73,-99.99,,,0.00,Acu-Link.com,2013-01-25 15:51:00,
2013-01-25 11:07:00,1.0,-6.5,30.09,West,270,5.3,-999.0,70,-99.99,,,0.00,Acu-Link.com,2013-01-25 16:07:00,
2013-01-25 11:22:00,1.4,-6.4,30.08,WSW,247,10.9,-999.0,69,-99.99,,,0.00,Acu-Link.com,2013-01-25 16:22:00,
2013-01-25 11:37:00,1.4,-7.0,30.08,SW,225,8.3,-999.0,67,-99.99,,,0.00,Acu-Link.com,2013-01-25 16:37:00,
2013-01-25 11:52:00,1.0,-7.1,30.06,West,270,8.9,-999.0,68,-99.99,,,0.00,Acu-Link.com,2013-01-25 16:52:00,
2013-01-25 12:07:00,1.4,-6.4,30.06,WSW,247,8.3,-999.0,69,-99.99,,,0.00,Acu-Link.com,2013-01-25 17:07:00,
2013-01-25 12:23:00,3.4,-5.4,30.05,West,270,4.7,-999.0,66,-99.99,,,0.00,Acu-Link.com,2013-01-25 17:23:00,
2013-01-25 12:38:00,1.8,-6.0,30.04,SSW,202,4.7,-999.0,69,-99.99,,,0.00,Acu-Link.com,2013-01-25 17:38:00,
2013-01-25 12:53:00,4.1,-5.0,30.03,West,270,10.9,-999.0,65,-99.99,,,0.00,Acu-Link.com,2013-01-25 17:53:00,
2013-01-25 13:08:00,3.7,-5.1,30.03,WSW,247,3.7,-999.0,66,-99.99,,,0.00,Acu-Link.com,2013-01-25 18:08:00,
2013-01-25 13:24:00,3.2,-5.2,30.02,West,270,5.8,-999.0,67,-99.99,,,0.00,Acu-Link.com,2013-01-25 18:24:00,
2013-01-25 13:39:00,3.4,-5.7,30.01,WSW,247,4.2,-999.0,65,-99.99,,,0.00,Acu-Link.com,2013-01-25 18:39:00,
2013-01-25 13:54:00,3.2,-5.6,30.01,NNW,337,3.7,-999.0,66,-99.99,,,0.00,Acu-Link.com,2013-01-25 18:54:00,
2013-01-25 14:09:00,2.8,-6.3,30.01,SW,225,4.7,-999.0,65,-99.99,,,0.00,Acu-Link.com,2013-01-25 19:09:00,
2013-01-25 14:24:00,3.6,-5.5,30.00,WSW,247,6.8,-999.0,65,-99.99,,,0.00,Acu-Link.com,2013-01-25 19:24:00,
2013-01-25 14:40:00,3.7,-5.1,30.00,WNW,292,4.7,-999.0,66,-99.99,,,0.00,Acu-Link.com,2013-01-25 19:40:00,
2013-01-25 14:55:00,5.2,-5.3,30.01,WSW,247,7.3,-999.0,61,-99.99,,,0.00,Acu-Link.com,2013-01-25 19:55:00,
2013-01-25 15:10:00,4.5,-5.9,29.99,NNW,337,3.2,-999.0,61,-99.99,,,0.00,Acu-Link.com,2013-01-25 20:10:00,
2013-01-25 15:25:00,6.3,-4.9,29.99,NNW,337,4.2,-999.0,59,-99.99,,,0.00,Acu-Link.com,2013-01-25 20:25:00,
2013-01-25 15:40:00,7.0,-5.0,29.97,WSW,247,6.3,-999.0,57,-99.99,,,0.00,Acu-Link.com,2013-01-25 20:40:00,
2013-01-25 15:56:00,2.7,-6.4,29.99,WNW,292,2.7,-999.0,65,-99.99,,,0.00,Acu-Link.com,2013-01-25 20:56:00,
2013-01-25 16:11:00,1.6,-6.5,29.98,West,270,2.2,-999.0,68,-99.99,,,0.00,Acu-Link.com,2013-01-25 21:11:00,
2013-01-25 16:26:00,0.9,-6.3,29.98,WSW,247,2.2,-999.0,71,-99.99,,,0.00,Acu-Link.com,2013-01-25 21:26:00,
2013-01-25 16:41:00,-0.2,-6.5,29.98,West,270,2.2,-999.0,74,-99.99,,,0.00,Acu-Link.com,2013-01-25 21:41:00,
2013-01-25 16:56:00,-1.3,-7.0,29.98,WSW,247,3.2,-999.0,76,-99.99,,,0.00,Acu-Link.com,2013-01-25 21:56:00,
2013-01-25 17:12:00,-1.7,-7.1,29.99,WNW,292,2.2,-999.0,77,-99.99,,,0.00,Acu-Link.com,2013-01-25 22:12:00,
2013-01-25 17:27:00,-2.4,-7.5,29.98,NNW,337,0.0,-999.0,78,-99.99,,,0.00,Acu-Link.com,2013-01-25 22:27:00,
2013-01-25 17:42:00,-2.9,-7.5,29.98,SW,225,0.0,-999.0,80,-99.99,,,0.00,Acu-Link.com,2013-01-25 22:42:00,
2013-01-25 17:57:00,-2.9,-7.3,29.99,SE,135,0.0,-999.0,81,-99.99,,,0.00,Acu-Link.com,2013-01-25 22:57:00,
2013-01-25 18:13:00,-2.9,-7.3,29.99,SSE,157,0.0,-999.0,81,-99.99,,,0.00,Acu-Link.com,2013-01-25 23:13:00,
2013-01-25 18:28:00,-2.6,-6.5,29.99,West,270,0.0,-999.0,83,-99.99,,,0.00,Acu-Link.com,2013-01-25 23:28:00,
2013-01-25 18:43:00,-2.0,-6.1,29.99,SW,225,2.2,-999.0,82,-99.99,,,0.00,Acu-Link.com,2013-01-25 23:43:00,
2013-01-25 18:58:00,-1.3,-5.9,29.98,SW,225,1.7,-999.0,80,-99.99,,,0.00,Acu-Link.com,2013-01-25 23:58:00,
2013-01-25 19:13:00,-1.3,-5.9,29.97,South,180,0.0,-999.0,80,-99.99,,,0.00,Acu-Link.com,2013-01-26 00:13:00,
2013-01-25 19:29:00,-1.3,-5.9,29.97,ESE,112,0.0,-999.0,80,-99.99,,,0.00,Acu-Link.com,2013-01-26 00:29:00,
2013-01-25 19:44:00,-1.3,-5.9,29.97,ESE,112,0.0,-999.0,80,-99.99,,,0.00,Acu-Link.com,2013-01-26 00:44:00,
2013-01-25 19:59:00,-1.3,-5.9,29.95,NNE,22,0.0,-999.0,80,-99.99,,,0.00,Acu-Link.com,2013-01-26 00:59:00,
2013-01-25 20:14:00,-1.3,-5.4,29.95,ESE,112,0.0,-999.0,82,-99.99,,,0.00,Acu-Link.com,2013-01-26 01:14:00,
2013-01-25 20:29:00,-1.3,-5.4,29.95,West,270,1.7,-999.0,82,-99.99,,,0.00,Acu-Link.com,2013-01-26 01:29:00,
2013-01-25 20:45:00,-1.3,-5.2,29.94,West,270,1.7,-999.0,83,-99.99,,,0.00,Acu-Link.com,2013-01-26 01:45:00,
2013-01-25 21:00:00,-1.3,-5.4,29.94,SW,225,0.0,-999.0,82,-99.99,,,0.00,Acu-Link.com,2013-01-26 02:00:00,
2013-01-25 21:15:00,-1.3,-5.4,29.93,NW,315,0.0,-999.0,82,-99.99,,,0.00,Acu-Link.com,2013-01-26 02:15:00,
2013-01-25 21:30:00,-1.5,-5.6,29.93,West,270,0.0,-999.0,82,-99.99,,,0.00,Acu-Link.com,2013-01-26 02:30:00,
2013-01-25 21:45:00,-1.8,-5.7,29.94,NE,45,0.0,-999.0,83,-99.99,,,0.00,Acu-Link.com,2013-01-26 02:45:00,
2013-01-25 22:01:00,-2.2,-6.1,29.93,WSW,247,0.0,-999.0,83,-99.99,,,0.00,Acu-Link.com,2013-01-26 03:01:00,
2013-01-25 22:16:00,-2.2,-5.8,29.93,NNE,22,0.0,-999.0,84,-99.99,,,0.00,Acu-Link.com,2013-01-26 03:16:00,
2013-01-25 22:31:00,-2.0,-5.6,29.93,WSW,247,0.0,-999.0,84,-99.99,,,0.00,Acu-Link.com,2013-01-26 03:31:00,
2013-01-25 22:46:00,-1.7,-5.1,29.92,West,270,0.0,-999.0,85,-99.99,,,0.00,Acu-Link.com,2013-01-26 03:46:00,
2013-01-25 23:02:00,-1.8,-5.2,29.93,WNW,292,0.0,-999.0,85,-99.99,,,0.00,Acu-Link.com,2013-01-26 04:02:00,
2013-01-25 23:17:00,-1.8,-5.2,29.92,NW,315,1.1,-999.0,85,-99.99,,,0.00,Acu-Link.com,2013-01-26 04:17:00,
2013-01-25 23:32:00,-1.8,-5.2,29.92,NE,45,0.0,-999.0,85,-99.99,,,0.00,Acu-Link.com,2013-01-26 04:32:00,
2013-01-25 23:47:00,-1.8,-5.2,29.91,NNE,22,0.0,-999.0,85,-99.99,,,0.00,Acu-Link.com,2013-01-26 04:47:00,